sensor_id;sensor_type;location;lat;lon;timestamp;temperature;humidity
19538;DHT22;9914;51.008;4.300;2022-08-21T00:00:24;18.50;99.90
19538;DHT22;9914;51.008;4.300;2022-08-21T00:03:02;18.50;99.90
19538;DHT22;9914;51.008;4.300;2022-08-21T00:05:29;18.40;99.90
19538;DHT22;9914;51.008;4.300;2022-08-21T00:07:56;18.30;99.90
19538;DHT22;9914;51.008;4.300;2022-08-21T00:10:22;18.30;99.90
19538;DHT22;9914;51.008;4.300;2022-08-21T00:12:48;18.30;99.90
19538;DHT22;9914;51.008;4.300;2022-08-21T00:15:18;18.20;99.90
19538;DHT22;9914;51.008;4.300;2022-08-21T00:17:45;18.20;99.90
19538;DHT22;9914;51.008;4.300;2022-08-21T00:20:12;18.10;99.90
19538;DHT22;9914;51.008;4.300;2022-08-21T00:22:38;18.00;99.90
19538;DHT22;9914;51.008;4.300;2022-08-21T00:25:06;18.10;99.90
19538;DHT22;9914;51.008;4.300;2022-08-21T00:27:32;18.10;99.90
19538;DHT22;9914;51.008;4.300;2022-08-21T00:29:58;18.10;99.90
19538;DHT22;9914;51.008;4.300;2022-08-21T00:32:25;18.10;99.90
19538;DHT22;9914;51.008;4.300;2022-08-21T00:34:52;18.00;99.90
19538;DHT22;9914;51.008;4.300;2022-08-21T00:37:19;18.00;99.90
19538;DHT22;9914;51.008;4.300;2022-08-21T00:39:45;18.00;99.90
19538;DHT22;9914;51.008;4.300;2022-08-21T00:42:11;17.90;99.90
19538;DHT22;9914;51.008;4.300;2022-08-21T00:44:42;17.90;99.90
19538;DHT22;9914;51.008;4.300;2022-08-21T00:47:08;18.00;99.90
19538;DHT22;9914;51.008;4.300;2022-08-21T00:49:34;17.90;99.90
19538;DHT22;9914;51.008;4.300;2022-08-21T00:52:01;17.90;99.90
19538;DHT22;9914;51.008;4.300;2022-08-21T00:54:28;17.90;99.90
19538;DHT22;9914;51.008;4.300;2022-08-21T00:56:59;17.80;99.90
19538;DHT22;9914;51.008;4.300;2022-08-21T00:59:26;17.80;99.90
19538;DHT22;9914;51.008;4.300;2022-08-21T01:01:53;17.70;99.90
19538;DHT22;9914;51.008;4.300;2022-08-21T01:04:19;17.70;99.90
19538;DHT22;9914;51.008;4.300;2022-08-21T01:06:46;17.60;99.90
19538;DHT22;9914;51.008;4.300;2022-08-21T01:09:12;17.60;99.90
19538;DHT22;9914;51.008;4.300;2022-08-21T01:11:39;17.60;99.90
19538;DHT22;9914;51.008;4.300;2022-08-21T01:14:05;17.60;99.90
19538;DHT22;9914;51.008;4.300;2022-08-21T01:16:31;17.60;99.90
19538;DHT22;9914;51.008;4.300;2022-08-21T01:18:58;17.60;99.90
19538;DHT22;9914;51.008;4.300;2022-08-21T01:21:26;17.50;99.90
19538;DHT22;9914;51.008;4.300;2022-08-21T01:23:53;17.40;99.90
19538;DHT22;9914;51.008;4.300;2022-08-21T01:26:24;17.50;99.90
19538;DHT22;9914;51.008;4.300;2022-08-21T01:29:01;17.50;99.90
19538;DHT22;9914;51.008;4.300;2022-08-21T01:31:28;17.40;99.90
19538;DHT22;9914;51.008;4.300;2022-08-21T01:33:55;17.30;99.90
19538;DHT22;9914;51.008;4.300;2022-08-21T01:36:22;17.30;99.90
19538;DHT22;9914;51.008;4.300;2022-08-21T01:38:48;17.20;99.90
19538;DHT22;9914;51.008;4.300;2022-08-21T01:41:15;17.00;99.90
19538;DHT22;9914;51.008;4.300;2022-08-21T01:43:42;17.00;99.90
19538;DHT22;9914;51.008;4.300;2022-08-21T01:46:09;17.00;99.90
19538;DHT22;9914;51.008;4.300;2022-08-21T01:48:35;17.00;99.90
19538;DHT22;9914;51.008;4.300;2022-08-21T01:51:01;17.00;99.90
19538;DHT22;9914;51.008;4.300;2022-08-21T01:53:28;17.00;99.90
19538;DHT22;9914;51.008;4.300;2022-08-21T01:55:53;16.90;99.90
19538;DHT22;9914;51.008;4.300;2022-08-21T01:58:19;16.90;99.90
19538;DHT22;9914;51.008;4.300;2022-08-21T02:00:45;17.00;99.90
19538;DHT22;9914;51.008;4.300;2022-08-21T02:03:10;16.80;99.90
19538;DHT22;9914;51.008;4.300;2022-08-21T02:05:36;16.80;99.90
19538;DHT22;9914;51.008;4.300;2022-08-21T02:08:02;16.80;99.90
19538;DHT22;9914;51.008;4.300;2022-08-21T02:10:31;16.80;99.90
19538;DHT22;9914;51.008;4.300;2022-08-21T02:12:57;16.80;99.90
19538;DHT22;9914;51.008;4.300;2022-08-21T02:15:25;16.70;99.90
19538;DHT22;9914;51.008;4.300;2022-08-21T02:17:57;16.70;99.90
19538;DHT22;9914;51.008;4.300;2022-08-21T02:20:27;16.70;99.90
19538;DHT22;9914;51.008;4.300;2022-08-21T02:22:53;16.60;99.90
19538;DHT22;9914;51.008;4.300;2022-08-21T02:25:21;16.60;99.90
19538;DHT22;9914;51.008;4.300;2022-08-21T02:27:47;16.50;99.90
19538;DHT22;9914;51.008;4.300;2022-08-21T02:30:18;16.50;99.90
19538;DHT22;9914;51.008;4.300;2022-08-21T02:32:45;16.50;99.90
19538;DHT22;9914;51.008;4.300;2022-08-21T02:35:12;16.50;99.90
19538;DHT22;9914;51.008;4.300;2022-08-21T02:37:59;16.50;99.90
19538;DHT22;9914;51.008;4.300;2022-08-21T02:40:27;16.40;99.90
19538;DHT22;9914;51.008;4.300;2022-08-21T02:42:53;16.50;99.90
19538;DHT22;9914;51.008;4.300;2022-08-21T02:45:19;16.40;99.90
19538;DHT22;9914;51.008;4.300;2022-08-21T02:48:07;16.40;99.90
19538;DHT22;9914;51.008;4.300;2022-08-21T02:50:42;16.40;99.90
19538;DHT22;9914;51.008;4.300;2022-08-21T02:53:10;16.40;99.90
19538;DHT22;9914;51.008;4.300;2022-08-21T02:55:37;16.40;99.90
19538;DHT22;9914;51.008;4.300;2022-08-21T02:58:05;16.30;99.90
19538;DHT22;9914;51.008;4.300;2022-08-21T03:00:32;16.30;99.90
19538;DHT22;9914;51.008;4.300;2022-08-21T03:02:59;16.20;99.90
19538;DHT22;9914;51.008;4.300;2022-08-21T03:05:26;16.20;99.90
19538;DHT22;9914;51.008;4.300;2022-08-21T03:07:53;16.30;99.90
19538;DHT22;9914;51.008;4.300;2022-08-21T03:10:20;16.20;99.90
19538;DHT22;9914;51.008;4.300;2022-08-21T03:12:47;16.20;99.90
19538;DHT22;9914;51.008;4.300;2022-08-21T03:15:14;16.20;99.90
19538;DHT22;9914;51.008;4.300;2022-08-21T03:17:41;16.20;99.90
19538;DHT22;9914;51.008;4.300;2022-08-21T03:20:08;16.20;99.90
19538;DHT22;9914;51.008;4.300;2022-08-21T03:22:34;16.20;99.90
19538;DHT22;9914;51.008;4.300;2022-08-21T03:25:00;16.20;99.90
19538;DHT22;9914;51.008;4.300;2022-08-21T03:27:27;16.10;99.90
19538;DHT22;9914;51.008;4.300;2022-08-21T03:29:54;16.00;99.90
19538;DHT22;9914;51.008;4.300;2022-08-21T03:32:20;16.10;99.90
19538;DHT22;9914;51.008;4.300;2022-08-21T03:34:46;16.10;99.90
19538;DHT22;9914;51.008;4.300;2022-08-21T03:37:13;16.10;99.90
19538;DHT22;9914;51.008;4.300;2022-08-21T03:39:39;16.10;99.90
19538;DHT22;9914;51.008;4.300;2022-08-21T03:42:05;16.10;99.90
19538;DHT22;9914;51.008;4.300;2022-08-21T03:44:32;16.10;99.90
19538;DHT22;9914;51.008;4.300;2022-08-21T03:46:58;16.10;99.90
19538;DHT22;9914;51.008;4.300;2022-08-21T03:49:25;16.10;99.90
19538;DHT22;9914;51.008;4.300;2022-08-21T03:51:51;16.10;99.90
19538;DHT22;9914;51.008;4.300;2022-08-21T03:54:17;16.10;99.90
19538;DHT22;9914;51.008;4.300;2022-08-21T03:56:42;16.10;99.90
19538;DHT22;9914;51.008;4.300;2022-08-21T03:59:08;16.00;99.90
19538;DHT22;9914;51.008;4.300;2022-08-21T04:01:34;16.00;99.90
19538;DHT22;9914;51.008;4.300;2022-08-21T04:04:00;16.00;99.90
19538;DHT22;9914;51.008;4.300;2022-08-21T04:06:26;16.00;99.90
19538;DHT22;9914;51.008;4.300;2022-08-21T04:08:52;15.90;99.90
19538;DHT22;9914;51.008;4.300;2022-08-21T04:11:19;15.90;99.90
19538;DHT22;9914;51.008;4.300;2022-08-21T04:13:45;15.90;99.90
19538;DHT22;9914;51.008;4.300;2022-08-21T04:16:11;15.90;99.90
19538;DHT22;9914;51.008;4.300;2022-08-21T04:18:37;16.00;99.90
19538;DHT22;9914;51.008;4.300;2022-08-21T04:21:03;15.90;99.90
19538;DHT22;9914;51.008;4.300;2022-08-21T04:23:29;15.90;99.90
19538;DHT22;9914;51.008;4.300;2022-08-21T04:25:56;15.90;99.90
19538;DHT22;9914;51.008;4.300;2022-08-21T04:28:23;16.10;99.90
19538;DHT22;9914;51.008;4.300;2022-08-21T04:30:51;16.00;99.90
19538;DHT22;9914;51.008;4.300;2022-08-21T04:33:17;16.10;99.90
19538;DHT22;9914;51.008;4.300;2022-08-21T04:35:43;16.00;99.90
19538;DHT22;9914;51.008;4.300;2022-08-21T04:38:09;16.00;99.90
19538;DHT22;9914;51.008;4.300;2022-08-21T04:40:35;16.10;99.90
19538;DHT22;9914;51.008;4.300;2022-08-21T04:43:07;16.00;99.90
19538;DHT22;9914;51.008;4.300;2022-08-21T04:45:39;16.00;99.90
19538;DHT22;9914;51.008;4.300;2022-08-21T04:48:07;16.00;99.90
19538;DHT22;9914;51.008;4.300;2022-08-21T04:50:45;16.10;99.90
19538;DHT22;9914;51.008;4.300;2022-08-21T04:53:38;16.00;99.90
19538;DHT22;9914;51.008;4.300;2022-08-21T04:56:05;16.00;99.90
19538;DHT22;9914;51.008;4.300;2022-08-21T04:58:34;16.00;99.90
19538;DHT22;9914;51.008;4.300;2022-08-21T05:01:03;16.10;99.90
19538;DHT22;9914;51.008;4.300;2022-08-21T05:03:32;16.10;99.90
19538;DHT22;9914;51.008;4.300;2022-08-21T05:05:58;16.20;99.90
19538;DHT22;9914;51.008;4.300;2022-08-21T05:08:25;16.20;99.90
19538;DHT22;9914;51.008;4.300;2022-08-21T05:10:52;16.20;99.90
19538;DHT22;9914;51.008;4.300;2022-08-21T05:13:18;16.20;99.90
19538;DHT22;9914;51.008;4.300;2022-08-21T05:15:44;16.30;99.90
19538;DHT22;9914;51.008;4.300;2022-08-21T05:18:10;16.20;99.90
19538;DHT22;9914;51.008;4.300;2022-08-21T05:20:36;16.30;99.90
19538;DHT22;9914;51.008;4.300;2022-08-21T05:23:07;16.30;99.90
19538;DHT22;9914;51.008;4.300;2022-08-21T05:25:33;16.30;99.90
19538;DHT22;9914;51.008;4.300;2022-08-21T05:27:59;16.30;99.90
19538;DHT22;9914;51.008;4.300;2022-08-21T05:30:25;16.30;99.90
19538;DHT22;9914;51.008;4.300;2022-08-21T05:32:58;16.40;99.90
19538;DHT22;9914;51.008;4.300;2022-08-21T05:35:25;16.40;99.90
19538;DHT22;9914;51.008;4.300;2022-08-21T05:37:51;16.60;99.90
19538;DHT22;9914;51.008;4.300;2022-08-21T05:40:17;16.60;99.90
19538;DHT22;9914;51.008;4.300;2022-08-21T05:42:43;16.70;99.90
19538;DHT22;9914;51.008;4.300;2022-08-21T05:45:09;16.70;99.90
19538;DHT22;9914;51.008;4.300;2022-08-21T05:47:35;16.80;99.90
19538;DHT22;9914;51.008;4.300;2022-08-21T05:50:00;16.90;99.90
19538;DHT22;9914;51.008;4.300;2022-08-21T05:52:26;16.90;99.90
19538;DHT22;9914;51.008;4.300;2022-08-21T05:54:52;17.10;99.90
19538;DHT22;9914;51.008;4.300;2022-08-21T05:57:20;17.40;99.90
19538;DHT22;9914;51.008;4.300;2022-08-21T05:59:46;17.60;99.90
19538;DHT22;9914;51.008;4.300;2022-08-21T06:02:11;17.70;99.90
19538;DHT22;9914;51.008;4.300;2022-08-21T06:04:40;17.90;99.90
19538;DHT22;9914;51.008;4.300;2022-08-21T06:07:06;18.00;99.90
19538;DHT22;9914;51.008;4.300;2022-08-21T06:09:32;18.10;99.90
19538;DHT22;9914;51.008;4.300;2022-08-21T06:12:02;18.30;99.90
19538;DHT22;9914;51.008;4.300;2022-08-21T06:14:28;18.30;99.90
19538;DHT22;9914;51.008;4.300;2022-08-21T06:16:53;18.40;99.90
19538;DHT22;9914;51.008;4.300;2022-08-21T06:19:19;18.40;99.90
19538;DHT22;9914;51.008;4.300;2022-08-21T06:21:45;18.50;99.90
19538;DHT22;9914;51.008;4.300;2022-08-21T06:24:10;18.70;99.90
19538;DHT22;9914;51.008;4.300;2022-08-21T06:26:36;18.80;99.90
19538;DHT22;9914;51.008;4.300;2022-08-21T06:29:02;18.90;99.90
19538;DHT22;9914;51.008;4.300;2022-08-21T06:31:28;18.90;99.90
19538;DHT22;9914;51.008;4.300;2022-08-21T06:33:54;18.90;99.90
19538;DHT22;9914;51.008;4.300;2022-08-21T06:36:20;18.90;99.90
19538;DHT22;9914;51.008;4.300;2022-08-21T06:38:46;18.90;99.90
19538;DHT22;9914;51.008;4.300;2022-08-21T06:41:12;19.00;99.90
19538;DHT22;9914;51.008;4.300;2022-08-21T06:43:38;19.10;99.90
19538;DHT22;9914;51.008;4.300;2022-08-21T06:46:03;19.20;99.90
19538;DHT22;9914;51.008;4.300;2022-08-21T06:48:29;19.20;99.90
19538;DHT22;9914;51.008;4.300;2022-08-21T06:50:58;19.30;99.90
19538;DHT22;9914;51.008;4.300;2022-08-21T06:53:24;19.30;99.90
19538;DHT22;9914;51.008;4.300;2022-08-21T06:55:50;19.30;99.90
19538;DHT22;9914;51.008;4.300;2022-08-21T06:58:16;19.50;99.90
19538;DHT22;9914;51.008;4.300;2022-08-21T07:00:45;19.60;99.90
19538;DHT22;9914;51.008;4.300;2022-08-21T07:03:34;19.70;99.90
19538;DHT22;9914;51.008;4.300;2022-08-21T07:06:00;19.90;99.90
19538;DHT22;9914;51.008;4.300;2022-08-21T07:08:26;20.10;99.90
19538;DHT22;9914;51.008;4.300;2022-08-21T07:10:55;20.20;99.90
19538;DHT22;9914;51.008;4.300;2022-08-21T07:13:21;20.30;99.90
19538;DHT22;9914;51.008;4.300;2022-08-21T07:15:47;20.40;99.90
19538;DHT22;9914;51.008;4.300;2022-08-21T07:18:13;20.40;99.90
19538;DHT22;9914;51.008;4.300;2022-08-21T07:20:39;20.50;99.90
19538;DHT22;9914;51.008;4.300;2022-08-21T07:23:08;20.60;99.90
19538;DHT22;9914;51.008;4.300;2022-08-21T07:25:35;20.70;99.90
19538;DHT22;9914;51.008;4.300;2022-08-21T07:28:01;20.80;99.90
19538;DHT22;9914;51.008;4.300;2022-08-21T07:30:26;21.00;99.90
19538;DHT22;9914;51.008;4.300;2022-08-21T07:32:53;21.30;99.90
19538;DHT22;9914;51.008;4.300;2022-08-21T07:35:20;21.40;99.90
19538;DHT22;9914;51.008;4.300;2022-08-21T07:37:46;21.40;99.90
19538;DHT22;9914;51.008;4.300;2022-08-21T07:40:12;21.30;99.90
19538;DHT22;9914;51.008;4.300;2022-08-21T07:42:43;21.30;99.90
19538;DHT22;9914;51.008;4.300;2022-08-21T07:45:10;21.30;99.90
19538;DHT22;9914;51.008;4.300;2022-08-21T07:47:36;21.40;99.90
19538;DHT22;9914;51.008;4.300;2022-08-21T07:50:02;21.40;99.90
19538;DHT22;9914;51.008;4.300;2022-08-21T07:52:27;21.50;99.90
19538;DHT22;9914;51.008;4.300;2022-08-21T07:54:53;21.60;99.90
19538;DHT22;9914;51.008;4.300;2022-08-21T07:57:18;21.70;99.90
19538;DHT22;9914;51.008;4.300;2022-08-21T07:59:44;22.00;99.90
19538;DHT22;9914;51.008;4.300;2022-08-21T08:02:10;22.10;99.90
19538;DHT22;9914;51.008;4.300;2022-08-21T08:04:35;22.30;99.90
19538;DHT22;9914;51.008;4.300;2022-08-21T08:07:01;22.30;99.90
19538;DHT22;9914;51.008;4.300;2022-08-21T08:09:27;22.30;99.90
19538;DHT22;9914;51.008;4.300;2022-08-21T08:11:52;22.20;99.90
19538;DHT22;9914;51.008;4.300;2022-08-21T08:14:18;22.20;99.90
19538;DHT22;9914;51.008;4.300;2022-08-21T08:16:44;22.00;99.90
19538;DHT22;9914;51.008;4.300;2022-08-21T08:19:09;22.00;99.90
19538;DHT22;9914;51.008;4.300;2022-08-21T08:21:35;22.10;99.90
19538;DHT22;9914;51.008;4.300;2022-08-21T08:24:03;22.20;99.90
19538;DHT22;9914;51.008;4.300;2022-08-21T08:26:28;22.20;99.90
19538;DHT22;9914;51.008;4.300;2022-08-21T08:28:54;22.30;99.90
19538;DHT22;9914;51.008;4.300;2022-08-21T08:31:20;22.30;99.90
19538;DHT22;9914;51.008;4.300;2022-08-21T08:33:45;22.30;99.90
19538;DHT22;9914;51.008;4.300;2022-08-21T08:36:16;22.30;99.90
19538;DHT22;9914;51.008;4.300;2022-08-21T08:38:43;22.10;99.90
19538;DHT22;9914;51.008;4.300;2022-08-21T08:41:17;22.50;99.90
19538;DHT22;9914;51.008;4.300;2022-08-21T08:43:53;22.80;99.90
19538;DHT22;9914;51.008;4.300;2022-08-21T08:46:25;23.10;99.90
19538;DHT22;9914;51.008;4.300;2022-08-21T08:49:05;23.20;99.90
19538;DHT22;9914;51.008;4.300;2022-08-21T08:51:40;23.20;99.90
19538;DHT22;9914;51.008;4.300;2022-08-21T08:54:11;23.20;99.90
19538;DHT22;9914;51.008;4.300;2022-08-21T08:56:38;23.20;99.90
19538;DHT22;9914;51.008;4.300;2022-08-21T08:59:15;23.20;99.90
19538;DHT22;9914;51.008;4.300;2022-08-21T09:01:41;23.30;99.90
19538;DHT22;9914;51.008;4.300;2022-08-21T09:04:07;23.50;99.90
19538;DHT22;9914;51.008;4.300;2022-08-21T09:06:52;23.60;99.90
19538;DHT22;9914;51.008;4.300;2022-08-21T09:12:06;23.90;99.90
19538;DHT22;9914;51.008;4.300;2022-08-21T09:14:55;24.00;99.90
19538;DHT22;9914;51.008;4.300;2022-08-21T09:20:26;24.30;99.90
19538;DHT22;9914;51.008;4.300;2022-08-21T09:26:04;24.90;99.90
19538;DHT22;9914;51.008;4.300;2022-08-21T09:28:35;25.20;99.90
19538;DHT22;9914;51.008;4.300;2022-08-21T09:31:07;25.30;99.90
19538;DHT22;9914;51.008;4.300;2022-08-21T09:33:33;25.40;99.90
19538;DHT22;9914;51.008;4.300;2022-08-21T09:35:59;25.60;99.90
19538;DHT22;9914;51.008;4.300;2022-08-21T09:38:52;25.40;99.90
19538;DHT22;9914;51.008;4.300;2022-08-21T09:41:27;25.10;99.90
19538;DHT22;9914;51.008;4.300;2022-08-21T09:43:53;25.00;99.90
19538;DHT22;9914;51.008;4.300;2022-08-21T09:46:24;25.00;99.90
19538;DHT22;9914;51.008;4.300;2022-08-21T09:48:53;24.90;99.90
19538;DHT22;9914;51.008;4.300;2022-08-21T09:51:21;24.90;99.90
19538;DHT22;9914;51.008;4.300;2022-08-21T09:56:34;24.70;99.90
19538;DHT22;9914;51.008;4.300;2022-08-21T09:59:26;24.70;99.90
19538;DHT22;9914;51.008;4.300;2022-08-21T10:01:53;24.70;99.90
19538;DHT22;9914;51.008;4.300;2022-08-21T10:04:27;24.80;99.90
19538;DHT22;9914;51.008;4.300;2022-08-21T10:06:53;25.00;99.90
19538;DHT22;9914;51.008;4.300;2022-08-21T10:09:20;25.10;99.90
19538;DHT22;9914;51.008;4.300;2022-08-21T10:19:53;24.40;99.90
19538;DHT22;9914;51.008;4.300;2022-08-21T10:30:26;25.60;99.90
19538;DHT22;9914;51.008;4.300;2022-08-21T10:33:53;25.90;99.90
19538;DHT22;9914;51.008;4.300;2022-08-21T10:38:55;26.60;99.90
19538;DHT22;9914;51.008;4.300;2022-08-21T10:41:38;26.40;99.90
19538;DHT22;9914;51.008;4.300;2022-08-21T10:44:23;26.50;99.90
19538;DHT22;9914;51.008;4.300;2022-08-21T10:47:05;26.70;99.90
19538;DHT22;9914;51.008;4.300;2022-08-21T10:52:44;26.80;99.90
19538;DHT22;9914;51.008;4.300;2022-08-21T10:55:31;26.50;99.90
19538;DHT22;9914;51.008;4.300;2022-08-21T11:06:06;26.90;99.90
19538;DHT22;9914;51.008;4.300;2022-08-21T11:08:44;27.00;99.90
19538;DHT22;9914;51.008;4.300;2022-08-21T11:11:20;27.00;99.90
19538;DHT22;9914;51.008;4.300;2022-08-21T11:14:21;26.90;99.90
19538;DHT22;9914;51.008;4.300;2022-08-21T11:17:07;26.60;99.90
19538;DHT22;9914;51.008;4.300;2022-08-21T11:19:50;26.60;99.90
19538;DHT22;9914;51.008;4.300;2022-08-21T11:22:25;26.80;99.90
19538;DHT22;9914;51.008;4.300;2022-08-21T11:25:03;26.90;99.90
19538;DHT22;9914;51.008;4.300;2022-08-21T11:27:49;26.70;99.90
19538;DHT22;9914;51.008;4.300;2022-08-21T11:30:15;26.50;99.90
19538;DHT22;9914;51.008;4.300;2022-08-21T11:35:39;26.10;99.90
19538;DHT22;9914;51.008;4.300;2022-08-21T11:38:35;26.40;99.90
19538;DHT22;9914;51.008;4.300;2022-08-21T11:41:29;26.10;99.90
19538;DHT22;9914;51.008;4.300;2022-08-21T11:44:32;26.50;99.90
19538;DHT22;9914;51.008;4.300;2022-08-21T11:52:44;26.00;99.90
19538;DHT22;9914;51.008;4.300;2022-08-21T12:00:24;26.90;99.90
19538;DHT22;9914;51.008;4.300;2022-08-21T12:02:58;27.30;99.90
19538;DHT22;9914;51.008;4.300;2022-08-21T12:05:34;27.60;99.90
19538;DHT22;9914;51.008;4.300;2022-08-21T12:08:14;27.60;99.90
19538;DHT22;9914;51.008;4.300;2022-08-21T12:10:58;27.70;99.90
19538;DHT22;9914;51.008;4.300;2022-08-21T12:13:28;27.70;99.90
19538;DHT22;9914;51.008;4.300;2022-08-21T12:16:08;27.40;99.90
19538;DHT22;9914;51.008;4.300;2022-08-21T12:18:35;27.00;99.90
19538;DHT22;9914;51.008;4.300;2022-08-21T12:21:24;27.20;99.90
19538;DHT22;9914;51.008;4.300;2022-08-21T12:26:58;27.30;99.90
19538;DHT22;9914;51.008;4.300;2022-08-21T12:29:30;27.50;99.90
19538;DHT22;9914;51.008;4.300;2022-08-21T12:32:03;27.60;99.90
19538;DHT22;9914;51.008;4.300;2022-08-21T12:34:52;27.70;99.90
19538;DHT22;9914;51.008;4.300;2022-08-21T12:40:11;27.30;99.90
19538;DHT22;9914;51.008;4.300;2022-08-21T12:42:43;27.60;99.90
19538;DHT22;9914;51.008;4.300;2022-08-21T12:45:37;27.60;99.90
19538;DHT22;9914;51.008;4.300;2022-08-21T12:51:33;27.40;99.90
19538;DHT22;9914;51.008;4.300;2022-08-21T12:54:01;27.50;99.90
19538;DHT22;9914;51.008;4.300;2022-08-21T12:56:30;27.60;99.90
19538;DHT22;9914;51.008;4.300;2022-08-21T12:59:00;27.70;99.90
19538;DHT22;9914;51.008;4.300;2022-08-21T13:01:35;27.70;99.90
19538;DHT22;9914;51.008;4.300;2022-08-21T13:04:05;27.50;99.90
19538;DHT22;9914;51.008;4.300;2022-08-21T13:06:38;27.30;99.90
19538;DHT22;9914;51.008;4.300;2022-08-21T13:09:07;27.30;99.90
19538;DHT22;9914;51.008;4.300;2022-08-21T13:11:34;27.50;99.90
19538;DHT22;9914;51.008;4.300;2022-08-21T13:14:02;27.70;99.90
19538;DHT22;9914;51.008;4.300;2022-08-21T13:16:29;28.00;99.90
19538;DHT22;9914;51.008;4.300;2022-08-21T13:18:59;27.80;99.90
19538;DHT22;9914;51.008;4.300;2022-08-21T13:21:31;27.90;99.90
19538;DHT22;9914;51.008;4.300;2022-08-21T13:24:23;27.70;99.90
19538;DHT22;9914;51.008;4.300;2022-08-21T13:26:49;27.20;99.90
19538;DHT22;9914;51.008;4.300;2022-08-21T13:29:21;27.30;99.90
19538;DHT22;9914;51.008;4.300;2022-08-21T13:31:52;27.20;99.90
19538;DHT22;9914;51.008;4.300;2022-08-21T13:34:23;27.20;99.90
19538;DHT22;9914;51.008;4.300;2022-08-21T13:36:57;27.20;99.90
19538;DHT22;9914;51.008;4.300;2022-08-21T13:39:24;27.10;99.90
19538;DHT22;9914;51.008;4.300;2022-08-21T13:41:54;27.30;99.90
19538;DHT22;9914;51.008;4.300;2022-08-21T13:44:41;27.50;99.90
19538;DHT22;9914;51.008;4.300;2022-08-21T13:47:10;27.70;99.90
19538;DHT22;9914;51.008;4.300;2022-08-21T13:49:38;27.50;99.90
19538;DHT22;9914;51.008;4.300;2022-08-21T13:52:14;27.50;99.90
19538;DHT22;9914;51.008;4.300;2022-08-21T13:54:41;27.60;99.90
19538;DHT22;9914;51.008;4.300;2022-08-21T13:57:19;27.90;99.90
19538;DHT22;9914;51.008;4.300;2022-08-21T13:59:45;28.10;99.90
19538;DHT22;9914;51.008;4.300;2022-08-21T14:02:19;28.30;99.90
19538;DHT22;9914;51.008;4.300;2022-08-21T14:04:57;28.50;99.90
19538;DHT22;9914;51.008;4.300;2022-08-21T14:07:36;28.50;99.90
19538;DHT22;9914;51.008;4.300;2022-08-21T14:10:21;28.40;99.90
19538;DHT22;9914;51.008;4.300;2022-08-21T14:15:28;28.40;99.90
19538;DHT22;9914;51.008;4.300;2022-08-21T14:18:05;28.20;99.90
19538;DHT22;9914;51.008;4.300;2022-08-21T14:20:36;28.20;99.90
19538;DHT22;9914;51.008;4.300;2022-08-21T14:23:02;28.20;99.90
19538;DHT22;9914;51.008;4.300;2022-08-21T14:25:38;28.20;99.90
19538;DHT22;9914;51.008;4.300;2022-08-21T14:28:24;28.10;99.90
19538;DHT22;9914;51.008;4.300;2022-08-21T14:30:51;28.20;99.90
19538;DHT22;9914;51.008;4.300;2022-08-21T14:33:30;28.10;99.90
19538;DHT22;9914;51.008;4.300;2022-08-21T14:35:57;28.30;99.90
19538;DHT22;9914;51.008;4.300;2022-08-21T14:38:25;28.30;99.90
19538;DHT22;9914;51.008;4.300;2022-08-21T14:40:53;28.30;99.90
19538;DHT22;9914;51.008;4.300;2022-08-21T14:43:20;28.40;99.90
19538;DHT22;9914;51.008;4.300;2022-08-21T14:45:46;28.30;99.90
19538;DHT22;9914;51.008;4.300;2022-08-21T14:48:13;28.30;99.90
19538;DHT22;9914;51.008;4.300;2022-08-21T14:50:39;28.30;99.90
19538;DHT22;9914;51.008;4.300;2022-08-21T14:53:07;28.00;99.90
19538;DHT22;9914;51.008;4.300;2022-08-21T14:55:33;28.20;99.90
19538;DHT22;9914;51.008;4.300;2022-08-21T14:58:22;28.20;99.90
19538;DHT22;9914;51.008;4.300;2022-08-21T15:00:49;28.10;99.90
19538;DHT22;9914;51.008;4.300;2022-08-21T15:03:16;28.10;99.90
19538;DHT22;9914;51.008;4.300;2022-08-21T15:05:41;28.10;99.90
19538;DHT22;9914;51.008;4.300;2022-08-21T15:08:07;28.30;99.90
19538;DHT22;9914;51.008;4.300;2022-08-21T15:10:33;28.30;99.90
19538;DHT22;9914;51.008;4.300;2022-08-21T15:12:59;28.30;99.90
19538;DHT22;9914;51.008;4.300;2022-08-21T15:15:25;28.40;99.90
19538;DHT22;9914;51.008;4.300;2022-08-21T15:17:51;28.50;99.90
19538;DHT22;9914;51.008;4.300;2022-08-21T15:20:17;28.50;99.90
19538;DHT22;9914;51.008;4.300;2022-08-21T15:22:42;28.50;99.90
19538;DHT22;9914;51.008;4.300;2022-08-21T15:25:08;28.40;99.90
19538;DHT22;9914;51.008;4.300;2022-08-21T15:27:34;28.40;99.90
19538;DHT22;9914;51.008;4.300;2022-08-21T15:30:02;28.40;99.90
19538;DHT22;9914;51.008;4.300;2022-08-21T15:32:28;28.30;99.90
19538;DHT22;9914;51.008;4.300;2022-08-21T15:34:57;27.70;99.90
19538;DHT22;9914;51.008;4.300;2022-08-21T15:37:23;27.70;99.90
19538;DHT22;9914;51.008;4.300;2022-08-21T15:39:50;27.80;99.90
19538;DHT22;9914;51.008;4.300;2022-08-21T15:42:18;27.90;99.90
19538;DHT22;9914;51.008;4.300;2022-08-21T15:44:44;28.00;99.90
19538;DHT22;9914;51.008;4.300;2022-08-21T15:47:14;27.90;99.90
19538;DHT22;9914;51.008;4.300;2022-08-21T15:49:41;27.90;99.90
19538;DHT22;9914;51.008;4.300;2022-08-21T15:52:17;27.80;99.90
19538;DHT22;9914;51.008;4.300;2022-08-21T15:54:43;27.80;99.90
19538;DHT22;9914;51.008;4.300;2022-08-21T15:57:12;27.90;99.90
19538;DHT22;9914;51.008;4.300;2022-08-21T15:59:41;27.90;99.90
19538;DHT22;9914;51.008;4.300;2022-08-21T16:02:18;27.80;99.90
19538;DHT22;9914;51.008;4.300;2022-08-21T16:04:44;27.70;99.90
19538;DHT22;9914;51.008;4.300;2022-08-21T16:07:10;27.60;99.90
19538;DHT22;9914;51.008;4.300;2022-08-21T16:09:36;27.30;99.90
19538;DHT22;9914;51.008;4.300;2022-08-21T16:12:04;26.90;99.90
19538;DHT22;9914;51.008;4.300;2022-08-21T16:14:31;27.10;99.90
19538;DHT22;9914;51.008;4.300;2022-08-21T16:16:58;27.20;99.90
19538;DHT22;9914;51.008;4.300;2022-08-21T16:19:26;27.10;99.90
19538;DHT22;9914;51.008;4.300;2022-08-21T16:21:53;27.20;99.90
19538;DHT22;9914;51.008;4.300;2022-08-21T16:24:18;27.10;99.90
19538;DHT22;9914;51.008;4.300;2022-08-21T16:26:44;26.90;99.90
19538;DHT22;9914;51.008;4.300;2022-08-21T16:29:10;27.00;99.90
19538;DHT22;9914;51.008;4.300;2022-08-21T16:31:35;27.10;99.90
19538;DHT22;9914;51.008;4.300;2022-08-21T16:34:02;26.70;99.90
19538;DHT22;9914;51.008;4.300;2022-08-21T16:36:28;26.00;99.90
19538;DHT22;9914;51.008;4.300;2022-08-21T16:38:55;25.70;99.90
19538;DHT22;9914;51.008;4.300;2022-08-21T16:41:22;26.20;99.90
19538;DHT22;9914;51.008;4.300;2022-08-21T16:43:49;26.60;99.90
19538;DHT22;9914;51.008;4.300;2022-08-21T16:46:16;26.80;99.90
19538;DHT22;9914;51.008;4.300;2022-08-21T16:48:43;27.10;99.90
19538;DHT22;9914;51.008;4.300;2022-08-21T16:51:13;27.20;99.90
19538;DHT22;9914;51.008;4.300;2022-08-21T16:53:39;27.20;99.90
19538;DHT22;9914;51.008;4.300;2022-08-21T16:56:06;26.80;99.90
19538;DHT22;9914;51.008;4.300;2022-08-21T16:58:35;26.90;99.90
19538;DHT22;9914;51.008;4.300;2022-08-21T17:01:06;26.70;99.90
19538;DHT22;9914;51.008;4.300;2022-08-21T17:03:36;26.80;99.90
19538;DHT22;9914;51.008;4.300;2022-08-21T17:06:04;26.40;99.90